createdAt,value
2022-08-27T00:00:56.239Z,23.97
2022-08-27T00:04:57.224Z,25.70
2022-08-27T00:08:58.115Z,25.87
2022-08-27T00:13:00.399Z,27.17
2022-08-27T00:17:01.529Z,26.07
2022-08-27T00:21:03.943Z,26.20
2022-08-27T00:25:07.617Z,26.10
2022-08-27T00:29:08.595Z,25.90
2022-08-27T00:33:10.208Z,24.83
2022-08-27T00:37:11.212Z,26.07
2022-08-27T00:41:13.431Z,27.17
2022-08-27T00:45:20.110Z,26.23
2022-08-27T00:49:28.019Z,24.53
2022-08-27T00:53:32.727Z,26.57
2022-08-27T00:57:38.243Z,24.07
2022-08-27T01:01:41.480Z,24.63
2022-08-27T01:05:44.847Z,22.67
2022-08-27T01:09:48.425Z,23.60
2022-08-27T01:14:00.426Z,22.37
2022-08-27T01:17:57.514Z,21.43
2022-08-27T01:22:05.185Z,23.93
2022-08-27T01:26:07.959Z,24.57
2022-08-27T01:30:11.704Z,22.50
2022-08-27T01:34:12.794Z,22.57
2022-08-27T01:38:18.822Z,23.20
2022-08-27T01:42:21.795Z,20.37
2022-08-27T01:46:25.414Z,22.30
2022-08-27T01:50:31.215Z,20.43
2022-08-27T01:54:33.020Z,20.10
2022-08-27T01:58:34.403Z,27.03
2022-08-27T02:02:35.696Z,21.03
2022-08-27T02:06:36.785Z,20.70
2022-08-27T02:10:39.792Z,24.30
2022-08-27T02:14:40.941Z,18.67
2022-08-27T02:18:42.724Z,38.30
2022-08-27T02:22:45.006Z,21.57
2022-08-27T02:26:46.118Z,20.10
2022-08-27T02:30:47.280Z,20.97
2022-08-27T02:34:48.275Z,24.37
2022-08-27T02:38:50.360Z,22.13
2022-08-27T02:42:52.035Z,24.17
2022-08-27T02:46:53.752Z,24.07
2022-08-27T02:50:55.222Z,25.17
2022-08-27T02:54:56.995Z,23.47
2022-08-27T02:58:59.400Z,24.53
2022-08-27T03:03:01.553Z,22.90
2022-08-27T03:07:03.324Z,24.97
2022-08-27T03:11:06.199Z,23.63
2022-08-27T03:15:09.969Z,24.50
2022-08-27T03:19:11.431Z,23.43
2022-08-27T03:23:14.604Z,25.50
2022-08-27T03:27:15.621Z,22.43
2022-08-27T03:31:21.746Z,24.27
2022-08-27T03:35:22.929Z,24.73
2022-08-27T03:39:23.931Z,22.87
2022-08-27T03:43:25.182Z,23.00
2022-08-27T03:47:26.075Z,25.10
2022-08-27T03:51:27.074Z,24.57
2022-08-27T03:55:28.164Z,23.83
2022-08-27T03:59:29.154Z,22.47
2022-08-27T04:03:30.935Z,24.73
2022-08-27T04:07:32.953Z,23.97
2022-08-27T04:11:34.637Z,26.07
2022-08-27T04:15:37.823Z,34.50
2022-08-27T04:19:38.499Z,24.67
2022-08-27T04:23:41.222Z,22.83
2022-08-27T04:27:42.826Z,24.50
2022-08-27T04:31:43.880Z,24.77
2022-08-27T04:35:44.899Z,21.13
2022-08-27T04:39:50.172Z,22.87
2022-08-27T04:43:52.089Z,21.20
2022-08-27T04:47:53.099Z,21.30
2022-08-27T04:51:54.597Z,21.43
2022-08-27T04:55:56.996Z,20.87
2022-08-27T04:59:57.970Z,20.27
2022-08-27T05:03:59.260Z,20.63
2022-08-27T05:08:00.149Z,19.13
2022-08-27T05:12:01.338Z,19.30
2022-08-27T05:16:06.155Z,19.37
2022-08-27T05:20:09.679Z,19.60
2022-08-27T05:24:11.081Z,18.90
2022-08-27T05:28:13.259Z,20.20
2022-08-27T05:32:14.303Z,20.00
2022-08-27T05:36:25.767Z,20.10
2022-08-27T05:40:27.061Z,18.93
2022-08-27T05:44:43.988Z,20.40
2022-08-27T05:48:33.296Z,19.70
2022-08-27T05:52:35.931Z,17.93
2022-08-27T05:56:38.159Z,18.87
2022-08-27T06:01:02.468Z,19.23
2022-08-27T06:05:00.770Z,20.30
2022-08-27T06:09:02.395Z,17.83
2022-08-27T06:13:03.803Z,19.37
2022-08-27T06:17:05.760Z,19.23
2022-08-27T06:21:07.592Z,18.67
2022-08-27T06:25:08.855Z,20.70
2022-08-27T06:29:12.126Z,20.13
2022-08-27T06:33:13.131Z,21.13
2022-08-27T06:37:14.136Z,20.13
2022-08-27T06:41:23.656Z,20.23
2022-08-27T06:45:21.759Z,22.23
2022-08-27T06:49:23.475Z,19.63
2022-08-27T06:53:24.691Z,19.60
2022-08-27T06:57:25.672Z,16.87
2022-08-27T07:01:30.714Z,18.47
2022-08-27T07:05:33.898Z,17.27
2022-08-27T07:09:35.073Z,15.10
2022-08-27T07:13:36.990Z,15.23
2022-08-27T07:17:40.097Z,15.20
2022-08-27T07:21:43.119Z,14.80
2022-08-27T07:25:44.841Z,15.13
2022-08-27T07:29:45.949Z,14.73
2022-08-27T07:33:51.385Z,13.33
2022-08-27T07:37:51.762Z,14.43
2022-08-27T07:42:15.930Z,12.30
2022-08-27T07:46:17.049Z,11.67
2022-08-27T07:50:18.936Z,10.80
2022-08-27T07:54:22.081Z,12.17
2022-08-27T07:58:23.165Z,10.83
2022-08-27T08:02:24.314Z,10.40
2022-08-27T08:06:25.789Z,9.53
2022-08-27T08:10:26.886Z,10.27
2022-08-27T08:14:29.947Z,9.70
2022-08-27T08:18:31.561Z,7.10
2022-08-27T08:22:32.679Z,7.60
2022-08-27T08:26:33.915Z,8.70
2022-08-27T08:30:35.340Z,6.50
2022-08-27T08:34:36.702Z,8.13
2022-08-27T08:38:39.393Z,8.97
2022-08-27T08:42:50.566Z,7.40
2022-08-27T08:46:52.270Z,7.87
2022-08-27T08:50:57.101Z,9.07
2022-08-27T08:55:13.690Z,10.40
2022-08-27T08:59:24.559Z,9.53
2022-08-27T09:03:27.480Z,9.03
2022-08-27T09:07:48.065Z,8.40
2022-08-27T09:12:04.761Z,8.17
2022-08-27T09:16:06.760Z,8.33
2022-08-27T09:20:13.340Z,9.47
2022-08-27T09:24:22.877Z,8.87
2022-08-27T09:28:45.641Z,8.93
2022-08-27T09:32:56.331Z,7.90
2022-08-27T09:37:03.686Z,8.93
2022-08-27T09:41:11.504Z,7.80
2022-08-27T09:45:19.142Z,8.43
2022-08-27T09:49:20.235Z,9.07
2022-08-27T09:53:25.699Z,9.13
2022-08-27T09:57:36.380Z,9.63
2022-08-27T10:01:50.706Z,9.87
2022-08-27T10:05:53.612Z,16.70
2022-08-27T10:09:58.529Z,18.00
2022-08-27T10:14:13.228Z,15.17
2022-08-27T10:18:18.140Z,8.70
2022-08-27T10:22:35.136Z,8.23
2022-08-27T10:26:42.940Z,19.57
2022-08-27T10:31:11.247Z,14.43
2022-08-27T10:35:25.246Z,9.07
2022-08-27T10:39:42.741Z,7.07
2022-08-27T10:43:59.602Z,6.67
2022-08-27T10:48:13.362Z,7.23
2022-08-27T10:52:37.975Z,7.50
2022-08-27T10:56:48.827Z,7.67
2022-08-27T11:01:10.622Z,6.23
2022-08-27T11:05:27.286Z,6.23
2022-08-27T11:09:40.987Z,6.43
2022-08-27T11:13:48.596Z,7.67
2022-08-27T11:17:53.490Z,6.57
2022-08-27T11:22:01.276Z,8.40
2022-08-27T11:26:04.958Z,9.63
2022-08-27T11:30:09.906Z,7.00
2022-08-27T11:34:35.197Z,8.17
2022-08-27T11:38:41.009Z,5.70
2022-08-27T11:42:47.749Z,8.23
2022-08-27T11:46:53.257Z,6.47
2022-08-27T11:51:10.271Z,6.83
2022-08-27T11:55:24.071Z,5.87
2022-08-27T11:59:31.884Z,6.47
2022-08-27T12:03:35.409Z,5.70
2022-08-27T12:07:40.711Z,5.67
2022-08-27T12:11:45.544Z,6.20
2022-08-27T12:16:01.387Z,5.23
2022-08-27T12:20:29.305Z,5.67
2022-08-27T12:24:34.256Z,5.80
2022-08-27T12:28:35.696Z,5.20
2022-08-27T12:32:40.436Z,5.30
2022-08-27T12:36:41.736Z,5.67
2022-08-27T12:40:57.282Z,4.70
2022-08-27T12:44:59.272Z,5.70
2022-08-27T12:49:36.774Z,5.70
2022-08-27T12:53:16.568Z,5.40
2022-08-27T12:57:36.364Z,5.30
2022-08-27T13:01:50.029Z,5.03
2022-08-27T13:05:53.185Z,5.10
2022-08-27T13:09:57.299Z,5.43
2022-08-27T13:14:07.026Z,6.10
2022-08-27T13:18:09.800Z,7.60
2022-08-27T13:22:13.065Z,5.27
2022-08-27T13:26:14.138Z,4.60
2022-08-27T13:30:22.971Z,6.13
2022-08-27T13:34:21.788Z,6.10
2022-08-27T13:38:25.365Z,5.73
2022-08-27T13:42:27.175Z,5.43
2022-08-27T13:46:30.548Z,5.70
2022-08-27T13:50:34.093Z,6.87
2022-08-27T13:54:35.473Z,6.77
2022-08-27T13:58:36.908Z,6.43
2022-08-27T14:02:38.125Z,6.67
2022-08-27T14:06:42.937Z,6.73
2022-08-27T14:10:47.835Z,6.10
2022-08-27T14:14:50.827Z,6.33
2022-08-27T14:19:04.557Z,6.37
2022-08-27T14:23:05.542Z,5.63
2022-08-27T14:27:13.140Z,6.17
2022-08-27T14:31:14.602Z,6.73
2022-08-27T14:35:25.148Z,6.33
2022-08-27T14:39:20.291Z,7.23
2022-08-27T14:43:24.010Z,6.67
2022-08-27T14:47:26.441Z,6.33
2022-08-27T14:51:30.763Z,5.67
2022-08-27T14:55:31.637Z,6.03
2022-08-27T14:59:33.390Z,5.83
2022-08-27T15:03:40.886Z,6.67
2022-08-27T15:07:42.239Z,5.93
2022-08-27T15:11:46.588Z,5.57
2022-08-27T15:15:47.660Z,5.17
2022-08-27T15:19:48.752Z,5.10
2022-08-27T15:23:52.071Z,5.37
2022-08-27T15:27:54.180Z,5.43
2022-08-27T15:31:55.625Z,4.73
2022-08-27T15:35:59.843Z,5.00
2022-08-27T15:40:01.122Z,6.13
2022-08-27T15:44:03.586Z,6.90
2022-08-27T15:48:05.712Z,6.63
2022-08-27T15:52:09.258Z,7.67
2022-08-27T15:56:10.353Z,6.03
2022-08-27T16:00:12.386Z,4.93
2022-08-27T16:04:14.900Z,6.93
2022-08-27T16:08:16.156Z,4.90
2022-08-27T16:12:26.900Z,5.03
2022-08-27T16:16:25.646Z,7.60
2022-08-27T16:20:26.867Z,5.00
2022-08-27T16:24:27.863Z,4.77
2022-08-27T16:28:29.060Z,4.90
2022-08-27T16:32:31.675Z,5.00
2022-08-27T16:36:32.897Z,6.93
2022-08-27T16:40:37.770Z,5.37
2022-08-27T16:44:38.909Z,4.93
2022-08-27T16:49:01.091Z,5.03
2022-08-27T16:53:08.854Z,6.17
2022-08-27T16:57:09.972Z,5.97
2022-08-27T17:01:13.256Z,6.80
2022-08-27T17:09:18.213Z,5.70
2022-08-27T17:13:22.816Z,7.10
2022-08-27T17:17:29.067Z,5.73
2022-08-27T17:21:32.224Z,6.43
2022-08-27T17:25:33.230Z,6.20
2022-08-27T17:29:34.544Z,8.17
2022-08-27T17:33:39.683Z,7.30
2022-08-27T17:37:41.489Z,6.87
2022-08-27T17:41:45.924Z,6.37
2022-08-27T17:45:48.056Z,6.77
2022-08-27T17:49:49.153Z,8.87
2022-08-27T17:53:58.473Z,7.50
2022-08-27T17:57:57.778Z,7.37
2022-08-27T18:02:00.383Z,7.73
2022-08-27T18:06:02.101Z,9.80
2022-08-27T18:10:03.869Z,6.43
2022-08-27T18:14:05.199Z,9.00
2022-08-27T18:18:09.019Z,5.83
2022-08-27T18:22:10.088Z,5.97
2022-08-27T18:26:14.345Z,5.73
2022-08-27T18:30:16.197Z,5.87
2022-08-27T18:34:20.712Z,6.57
2022-08-27T18:38:20.687Z,6.75
2022-08-27T18:42:21.724Z,5.97
2022-08-27T18:46:22.881Z,8.17
2022-08-27T18:50:24.550Z,6.43
2022-08-27T18:54:26.760Z,6.30
2022-08-27T18:58:28.093Z,7.00
2022-08-27T19:02:30.404Z,8.05
2022-08-27T19:06:32.357Z,8.60
2022-08-27T19:10:33.480Z,6.27
2022-08-27T19:14:34.543Z,7.70
2022-08-27T19:18:37.672Z,7.27
2022-08-27T19:22:39.030Z,6.70
2022-08-27T19:26:41.258Z,7.77
2022-08-27T19:30:43.668Z,11.00
2022-08-27T19:34:44.855Z,5.57
2022-08-27T19:38:49.775Z,7.50
2022-08-27T19:42:51.155Z,7.00
2022-08-27T19:46:54.860Z,7.50
2022-08-27T19:50:55.989Z,7.53
2022-08-27T19:55:13.236Z,8.13
2022-08-27T19:59:08.924Z,7.12
2022-08-27T20:03:03.440Z,9.20
2022-08-27T20:07:05.657Z,6.90
2022-08-27T20:11:06.862Z,6.67
2022-08-27T20:15:08.277Z,6.05
2022-08-27T20:19:09.927Z,7.30
2022-08-27T20:23:11.158Z,5.67
2022-08-27T20:27:12.125Z,7.57
2022-08-27T20:31:13.524Z,7.17
2022-08-27T20:35:15.967Z,7.13
2022-08-27T20:39:17.962Z,7.20
2022-08-27T20:43:20.196Z,7.67
2022-08-27T20:47:25.788Z,6.93
2022-08-27T20:51:27.255Z,7.30
2022-08-27T20:55:30.048Z,6.20
2022-08-27T20:59:50.079Z,7.30
2022-08-27T21:03:51.779Z,7.43
2022-08-27T21:07:53.674Z,6.13
2022-08-27T21:16:05.013Z,9.67
2022-08-27T21:20:08.509Z,7.07
2022-08-27T21:24:10.009Z,7.23
2022-08-27T21:28:11.933Z,8.47
2022-08-27T21:32:13.947Z,8.40
2022-08-27T21:36:15.295Z,7.87
2022-08-27T21:40:18.387Z,9.05
2022-08-27T21:44:19.495Z,8.50
2022-08-27T21:48:20.973Z,7.77
2022-08-27T21:52:23.189Z,8.47
2022-08-27T21:56:25.502Z,9.73
2022-08-27T22:00:32.281Z,10.27
2022-08-27T22:04:34.070Z,12.63
2022-08-27T22:08:35.187Z,9.10
2022-08-27T22:12:36.498Z,8.33
2022-08-27T22:16:37.796Z,8.60
2022-08-27T22:20:39.456Z,8.47
2022-08-27T22:24:40.692Z,9.13
2022-08-27T22:28:41.841Z,10.50
2022-08-27T22:32:43.618Z,9.93
2022-08-27T22:36:44.665Z,10.77
2022-08-27T22:40:48.169Z,9.27
2022-08-27T22:44:49.192Z,8.60
2022-08-27T22:48:50.724Z,8.43
2022-08-27T22:52:53.249Z,9.07
2022-08-27T22:56:54.692Z,8.33
2022-08-27T23:00:56.141Z,10.63
2022-08-27T23:04:57.703Z,12.73
2022-08-27T23:09:00.369Z,10.63
2022-08-27T23:13:01.982Z,10.63
2022-08-27T23:17:03.416Z,9.40
2022-08-27T23:25:29.438Z,10.70
2022-08-27T23:29:31.345Z,10.43
2022-08-27T23:33:32.641Z,10.47
2022-08-27T23:37:33.902Z,10.43
2022-08-27T23:41:35.276Z,11.53
2022-08-27T23:45:40.499Z,13.23
2022-08-27T23:49:39.812Z,13.27
2022-08-27T23:53:40.835Z,12.27
2022-08-27T23:57:41.839Z,13.37
